Time;durP1;ratioP1;P1;durP2;ratioP2;P2;SDS_P1;SDS_P2;PMS_P1;PMS_P2;Temp;Humidity;BMP_temperature;BMP_pressure;BME280_temperature;BME280_humidity;BME280_pressure;Samples;Min_cycle;Max_cycle;Signal;HPM_P1;HPM_P2
2022/08/13 00:02:16;;;;;;;;;;;16.10;99.90;;;15.10;90.25;95639.50;10375261;28;1915;-71
2022/08/13 00:07:23;;;;;;;;;;;16.00;99.90;;;15.05;90.21;95640.41;10385103;28;1748;-72
2022/08/13 00:17:52;;;;;;;;;;;15.80;99.90;;;14.87;91.20;95641.34;10393888;28;1955;-71
2022/08/13 00:23:08;;;;;;;;;;;15.80;99.90;;;14.80;91.72;95639.06;10390979;28;1881;-71
2022/08/13 00:28:23;;;;;;;;;;;15.80;99.90;;;14.70;92.39;95633.88;10393812;28;1893;-71
2022/08/13 00:33:26;;;;;;;;;;;15.60;99.90;;;14.59;93.46;95644.09;10367239;28;1858;-71
2022/08/13 00:38:53;;;;;;;;;;;15.60;99.90;;;14.50;94.51;95640.47;10368975;28;1924;-72
2022/08/13 00:43:58;;;;;;;;;;;15.60;99.90;;;14.42;94.83;95641.16;10381953;28;1837;-71
2022/08/13 00:49:03;;;;;;;;;;;15.30;99.90;;;14.36;95.88;95645.06;10391177;28;1907;-71
2022/08/13 00:54:07;;;;;;;;;;;15.30;99.90;;;14.25;96.66;95638.25;10375140;28;1861;-71
2022/08/13 00:59:13;;;;;;;;;;;;;;;14.16;98.06;95634.66;10393974;28;1915;-70
2022/08/13 01:04:19;;;;;;;;;;;15.00;99.90;;;14.12;98.54;95628.22;10387351;28;1896;-71
2022/08/13 01:09:29;;;;;;;;;;;15.00;99.90;;;14.09;99.33;95618.03;10365975;28;1952;-71
2022/08/13 01:14:53;;;;;;;;;;;;;;;14.05;99.72;95621.31;10386647;28;1861;-70
2022/08/13 01:19:56;;;;;;;;;;;14.90;99.90;;;14.07;100.00;95619.13;10380934;28;1928;-71
2022/08/13 01:25:25;;;;;;;;;;;14.90;99.90;;;14.00;100.00;95626.03;10390779;28;1971;-71
2022/08/13 01:30:46;;;;;;;;;;;15.00;99.90;;;13.98;100.00;95612.00;10392045;28;1946;-71
2022/08/13 01:36:04;;;;;;;;;;;14.90;99.90;;;14.06;100.00;95620.25;10387256;28;1998;-71
2022/08/13 01:41:36;;;;;;;;;;;14.90;99.90;;;14.02;100.00;95624.63;10385302;28;1950;-70
2022/08/13 01:53:01;;;;;;;;;;;14.90;99.90;;;13.87;100.00;95607.88;10387615;28;2058;-71
2022/08/13 01:58:06;;;;;;;;;;;14.80;99.90;;;13.83;100.00;95609.59;10376874;28;1985;-71
2022/08/13 02:03:12;;;;;;;;;;;14.80;99.90;;;13.82;100.00;95606.09;10338750;28;1123838;-72
2022/08/13 02:08:19;;;;;;;;;;;14.80;99.90;;;13.86;100.00;95609.78;10387631;28;1941;-71
2022/08/13 02:13:22;;;;;;;;;;;14.80;99.90;;;13.97;99.35;95613.91;10391648;28;1991;-70
2022/08/13 02:18:34;;;;;;;;;;;14.90;99.90;;;13.99;99.05;95616.31;10372581;28;1952;-71
2022/08/13 02:23:37;;;;;;;;;;;14.90;99.90;;;13.87;99.19;95611.41;10371224;28;1967;-71
2022/08/13 02:29:03;;;;;;;;;;;14.90;99.90;;;13.77;99.62;95606.19;10396982;28;1935;-71
2022/08/13 02:34:06;;;;;;;;;;;14.70;99.90;;;13.75;99.91;95611.88;10379662;28;2116;-71
2022/08/13 02:39:18;;;;;;;;;;;14.60;99.90;;;13.64;100.00;95606.97;10389044;28;1977;-71
2022/08/13 02:44:25;;;;;;;;;;;14.70;99.90;;;13.56;100.00;95613.03;10393329;28;2002;-71
2022/08/13 02:49:38;;;;;;;;;;;14.50;99.90;;;13.58;100.00;95613.53;10396257;28;1956;-71
2022/08/13 02:54:49;;;;;;;;;;;14.60;99.90;;;13.58;100.00;95608.13;10387348;28;2039;-71
2022/08/13 02:59:59;;;;;;;;;;;14.60;99.90;;;13.45;100.00;95607.81;10379725;28;1993;-71
2022/08/13 03:05:10;;;;;;;;;;;14.60;99.90;;;13.47;100.00;95619.09;10370109;28;1958;-71
2022/08/13 03:10:15;;;;;;;;;;;14.50;99.90;;;13.43;100.00;95611.91;10380174;28;1984;-72
2022/08/13 03:15:20;;;;;;;;;;;14.50;99.90;;;13.40;100.00;95605.19;10397265;28;1991;-72
2022/08/13 03:20:24;;;;;;;;;;;14.50;99.90;;;13.42;100.00;95600.31;10393958;28;1987;-72
2022/08/13 03:25:38;;;;;;;;;;;14.50;99.90;;;13.44;100.00;95602.69;10375847;28;2026;-71
2022/08/13 03:30:46;;;;;;;;;;;14.50;99.90;;;13.45;100.00;95609.69;10376217;28;2090;-71
2022/08/13 03:35:57;;;;;;;;;;;14.50;99.90;;;13.34;100.00;95606.34;10401248;28;2023;-72
2022/08/13 03:41:11;;;;;;;;;;;14.50;99.90;;;13.24;100.00;95604.63;10368569;28;1927;-72
2022/08/13 03:46:17;;;;;;;;;;;14.30;99.90;;;13.26;100.00;95612.44;10398091;28;1957;-72
2022/08/13 03:51:22;;;;;;;;;;;14.30;99.90;;;13.27;100.00;95605.94;10376305;28;1954;-70
2022/08/13 03:56:37;;;;;;;;;;;14.40;99.90;;;13.20;100.00;95610.88;10372205;28;2177;-72
2022/08/13 04:01:41;;;;;;;;;;;14.30;99.90;;;13.23;100.00;95618.41;10371980;28;2103;-72
2022/08/13 04:06:59;;;;;;;;;;;14.40;99.90;;;13.35;100.00;95612.56;10388566;28;1982;-72
2022/08/13 04:12:10;;;;;;;;;;;14.50;99.90;;;13.28;100.00;95615.63;10390226;28;1982;-72
2022/08/13 04:17:15;;;;;;;;;;;14.50;99.90;;;13.26;100.00;95607.03;10383839;28;2034;-72
2022/08/13 04:22:20;;;;;;;;;;;14.50;99.90;;;13.26;100.00;95612.44;10389549;28;2024;-72
2022/08/13 04:27:25;;;;;;;;;;;14.40;99.90;;;13.51;98.55;95601.22;10372912;28;1984;-71
2022/08/13 04:32:29;;;;;;;;;;;14.50;99.90;;;13.73;96.91;95592.44;10377105;28;1938;-71
2022/08/13 04:37:37;;;;;;;;;;;14.70;99.90;;;13.92;95.84;95597.78;10371537;28;2043;-72
2022/08/13 04:42:57;;;;;;;;;;;14.80;99.90;;;14.25;93.39;95605.81;10374554;28;2318;-72
2022/08/13 04:48:00;;;;;;;;;;;15.10;99.90;;;14.58;91.41;95603.84;10378065;28;2277;-71
2022/08/13 04:53:03;;;;;;;;;;;15.30;99.90;;;15.19;88.11;95607.06;10387733;28;2110;-71
2022/08/13 04:58:08;;;;;;;;;;;15.70;99.90;;;15.79;83.36;95598.59;10390981;28;2012;-71
2022/08/13 05:03:11;;;;;;;;;;;16.20;99.90;;;16.08;79.74;95585.31;10369247;28;2014;-71
2022/08/13 05:08:15;;;;;;;;;;;16.60;99.90;;;16.41;76.70;95569.50;10388907;28;1908;-71
2022/08/13 05:13:19;;;;;;;;;;;16.90;99.90;;;16.68;75.27;95565.72;10389983;28;1948;-70
2022/08/13 05:18:23;;;;;;;;;;;17.20;99.90;;;17.06;73.10;95564.34;10378467;28;2011;-71
2022/08/13 05:23:32;;;;;;;;;;;17.60;99.90;;;17.49;70.64;95572.44;10398299;28;2006;-71
2022/08/13 05:28:58;;;;;;;;;;;17.90;99.90;;;17.85;67.64;95569.34;10380275;28;1961;-71
2022/08/13 05:34:05;;;;;;;;;;;18.20;99.90;;;17.76;67.61;95568.59;10393240;28;1950;-72
2022/08/13 05:39:11;;;;;;;;;;;18.30;99.90;;;17.80;67.63;95578.47;10371704;28;1980;-72
2022/08/13 05:44:14;;;;;;;;;;;18.40;99.90;;;18.02;65.73;95573.94;10400899;28;1849;-71
2022/08/13 05:49:19;;;;;;;;;;;18.60;99.90;;;18.21;65.10;95577.06;10374959;28;1966;-71
2022/08/13 05:54:23;;;;;;;;;;;18.80;99.90;;;18.61;62.78;95577.50;10389306;28;1963;-71
2022/08/13 06:05:06;;;;;;;;;;;19.20;99.90;;;18.97;60.93;95575.38;10398421;28;1926;-71
2022/08/13 06:10:09;;;;;;;;;;;19.60;99.90;;;19.27;60.10;95576.88;10371309;28;1980;-70
2022/08/13 06:15:12;;;;;;;;;;;20.10;99.90;;;19.72;57.58;95570.72;10391368;28;1915;-70
2022/08/13 06:20:16;;;;;;;;;;;19.90;99.90;;;19.02;58.74;95569.72;10399841;28;1973;-70
2022/08/13 06:25:21;;;;;;;;;;;19.90;99.90;;;18.52;62.79;95574.03;10384699;28;1955;-71
2022/08/13 06:30:25;;;;;;;;;;;19.50;99.90;;;19.00;62.40;95585.59;10394598;28;2043;-71
2022/08/13 06:35:34;;;;;;;;;;;19.50;99.90;;;18.10;62.41;95573.91;10394142;28;1939;-71
2022/08/13 06:40:49;;;;;;;;;;;19.30;99.90;;;17.59;66.16;95574.03;10385521;28;2037;-70
2022/08/13 06:45:55;;;;;;;;;;;18.70;99.90;;;18.40;64.34;95575.88;10394360;28;1968;-71
2022/08/13 06:50:58;;;;;;;;;;;18.90;99.90;;;19.58;59.79;95573.75;10393344;28;1902;-71
2022/08/13 06:56:01;;;;;;;;;;;19.60;99.90;;;19.75;57.67;95580.19;10383796;28;2069;-71
2022/08/13 07:01:24;;;;;;;;;;;20.20;99.90;;;20.55;55.03;95583.28;10395458;28;2011;-72
2022/08/13 07:06:27;;;;;;;;;;;20.70;99.90;;;20.59;54.10;95586.09;10386489;28;2003;-71
2022/08/13 07:11:31;;;;;;;;;;;21.10;99.90;;;20.28;54.76;95592.88;10394529;28;2010;-72
2022/08/13 07:16:40;;;;;;;;;;;21.00;99.90;;;19.60;56.86;95601.50;10371864;28;2001;-70
2022/08/13 07:21:44;;;;;;;;;;;20.70;99.90;;;19.60;57.24;95587.06;10369682;28;2014;-71
2022/08/13 07:26:47;;;;;;;;;;;20.50;99.90;;;20.08;54.44;95582.88;10379517;28;1992;-71
2022/08/13 07:31:51;;;;;;;;;;;20.80;99.90;;;20.81;52.39;95582.91;10380642;28;2003;-71
2022/08/13 07:37:06;;;;;;;;;;;21.20;99.90;;;20.07;55.00;95592.19;10382674;28;1924;-69
2022/08/13 07:42:10;;;;;;;;;;;21.20;99.90;;;20.09;55.60;95582.50;10390011;28;1975;-71
2022/08/13 07:47:15;;;;;;;;;;;21.00;99.90;;;20.29;53.31;95591.75;10394447;28;2018;-71
2022/08/13 07:52:25;;;;;;;;;;;21.10;99.90;;;20.93;52.61;95580.16;10374507;28;1931;-71
2022/08/13 07:57:29;;;;;;;;;;;21.50;99.90;;;20.49;52.75;95590.91;10373467;28;2021;-69
2022/08/13 08:02:40;;;;;;;;;;;21.60;99.90;;;20.97;52.77;95589.25;10378475;28;1982;-70
2022/08/13 08:07:48;;;;;;;;;;;21.70;99.90;;;20.96;51.84;95593.13;10383992;28;2057;-71
2022/08/13 08:13:10;;;;;;;;;;;21.90;99.90;;;21.05;50.96;95596.50;10377486;28;1970;-70
2022/08/13 08:18:15;;;;;;;;;;;22.00;99.90;;;21.11;51.53;95588.09;10371800;28;1975;-71
2022/08/13 08:23:39;;;;;;;;;;;21.80;99.90;;;21.10;51.82;95591.97;10374047;28;1968;-70
2022/08/13 08:28:52;;;;;;;;;;;22.00;99.90;;;21.58;50.85;95589.13;10392776;28;2034;-71
2022/08/13 08:33:56;;;;;;;;;;;22.00;99.90;;;21.47;50.45;95592.69;10372663;28;1958;-71
2022/08/13 08:44:24;;;;;;;;;;;22.70;99.90;;;22.29;49.19;95586.69;10396799;28;2349;-72
2022/08/13 08:49:28;;;;;;;;;;;22.90;99.90;;;22.61;49.02;95585.53;10367042;28;2042;-72
2022/08/13 08:54:45;;;;;;;;;;;23.20;99.90;;;22.29;48.81;95587.50;10396319;28;1743;-72
2022/08/13 08:59:49;;;;;;;;;;;23.00;99.90;;;22.44;47.91;95590.56;10393502;28;2266;-72
2022/08/13 09:04:57;;;;;;;;;;;23.30;99.90;;;22.15;49.00;95592.63;10396707;28;2082;-71
2022/08/13 09:10:02;;;;;;;;;;;23.00;99.90;;;22.00;48.34;95596.88;10395678;28;2432;-72
2022/08/13 09:15:10;;;;;;;;;;;22.80;99.90;;;21.99;47.86;95600.75;10377222;28;1917;-71
2022/08/13 09:20:13;;;;;;;;;;;23.00;99.90;;;22.13;48.84;95594.88;10393246;28;1999;-71
2022/08/13 09:25:19;;;;;;;;;;;23.00;99.90;;;22.57;47.96;95592.84;10380245;28;1916;-72
2022/08/13 09:30:25;;;;;;;;;;;23.10;99.90;;;22.39;49.48;95597.94;10377711;28;1955;-71
2022/08/13 09:35:28;;;;;;;;;;;23.20;99.90;;;22.45;49.83;95592.94;10373301;28;2008;-71
2022/08/13 09:40:38;;;;;;;;;;;23.50;99.90;;;22.72;47.45;95588.53;10384242;28;2009;-71
2022/08/13 09:45:58;;;;;;;;;;;23.30;99.90;;;22.69;48.60;95582.97;10391057;28;1925;-71
2022/08/13 09:51:02;;;;;;;;;;;23.60;99.90;;;23.01;48.79;95590.00;10396090;28;1913;-71
2022/08/13 09:56:09;;;;;;;;;;;23.80;99.90;;;22.82;48.91;95592.66;10371442;28;1913;-71
2022/08/13 10:01:13;;;;;;;;;;;23.80;99.90;;;22.94;48.84;95584.34;10390509;28;2000;-71
2022/08/13 10:06:38;;;;;;;;;;;23.80;99.90;;;22.69;49.30;95589.22;10389212;28;1974;-70
2022/08/13 10:11:58;;;;;;;;;;;23.60;99.90;;;23.03;48.49;95579.47;10396872;28;2036;-70
2022/08/13 10:17:22;;;;;;;;;;;23.80;99.90;;;23.92;46.28;95580.50;10389505;28;1958;-72
2022/08/13 10:22:25;;;;;;;;;;;24.40;99.90;;;23.90;45.59;95588.31;10398586;28;2039;-71
2022/08/13 10:27:34;;;;;;;;;;;24.80;99.90;;;23.35;47.74;95593.06;10396946;28;1999;-71
2022/08/13 10:32:55;;;;;;;;;;;24.50;99.90;;;24.08;45.34;95575.72;10400602;28;1953;-71
2022/08/13 10:38:07;;;;;;;;;;;24.60;99.90;;;24.89;43.47;95574.72;10396481;28;1965;-71
2022/08/13 10:43:10;;;;;;;;;;;25.20;99.90;;;24.42;42.87;95556.69;10392780;28;2160;-71
2022/08/13 10:48:27;;;;;;;;;;;25.20;98.30;;;25.28;40.35;95550.53;10392230;28;2019;-70
2022/08/13 10:58:51;;;;;;;;;;;25.80;97.00;;;24.53;42.19;95555.69;10394347;28;1998;-70
2022/08/13 11:03:55;;;;;;;;;;;25.50;96.90;;;24.38;42.19;95553.09;10374536;28;2038;-70
2022/08/13 11:09:08;;;;;;;;;;;25.20;96.90;;;24.39;42.03;95550.00;10371249;28;1938;-70
2022/08/13 11:14:27;;;;;;;;;;;25.10;96.50;;;25.35;39.87;95542.34;10373732;28;1919;-71
2022/08/13 11:19:45;;;;;;;;;;;26.00;95.60;;;25.46;40.06;95548.78;10397747;28;1914;-70
2022/08/13 11:24:54;;;;;;;;;;;26.50;94.50;;;25.16;39.62;95551.53;10402305;28;1984;-70
2022/08/13 11:29:57;;;;;;;;;;;26.20;93.30;;;24.37;39.66;95548.78;10373913;28;2278;-73
2022/08/13 11:35:01;;;;;;;;;;;25.60;92.80;;;24.39;40.57;95551.94;10381752;28;1963;-71
2022/08/13 11:40:07;;;;;;;;;;;25.20;94.50;;;24.87;40.56;95541.28;10374198;28;2065;-72
2022/08/13 11:45:30;;;;;;;;;;;25.40;94.50;;;24.86;39.45;95547.94;10376077;28;1968;-72
2022/08/13 11:50:46;;;;;;;;;;;25.60;93.30;;;24.90;38.56;95538.59;10386578;28;2019;-71
2022/08/13 11:55:49;;;;;;;;;;;25.60;92.00;;;25.03;37.93;95537.19;10377718;28;1948;-70
2022/08/13 12:00:59;;;;;;;;;;;25.60;91.50;;;24.59;37.21;95536.94;10368271;28;1950;-71
2022/08/13 12:06:11;;;;;;;;;;;25.50;89.90;;;24.67;37.66;95535.88;10388196;28;1823;-71
2022/08/13 12:11:15;;;;;;;;;;;25.40;90.60;;;25.02;36.94;95540.31;10375105;28;1846;-71
2022/08/13 12:16:20;;;;;;;;;;;25.60;90.40;;;25.21;35.73;95540.22;10385639;28;1884;-71
2022/08/13 12:21:23;;;;;;;;;;;25.80;88.90;;;25.38;35.97;95544.34;10400176;28;1887;-71
2022/08/13 12:26:27;;;;;;;;;;;26.00;89.10;;;25.57;35.01;95543.38;10373403;28;1866;-70
2022/08/13 12:31:32;;;;;;;;;;;26.20;88.30;;;25.85;33.81;95542.97;10371650;28;1754;-71
2022/08/13 12:36:38;;;;;;;;;;;26.30;87.20;;;26.14;32.44;95535.75;10364559;28;1874;-72
2022/08/13 12:41:46;;;;;;;;;;;26.60;85.80;;;25.68;33.91;95532.50;10400626;28;1898;-72
2022/08/13 12:46:51;;;;;;;;;;;26.50;88.10;;;25.42;33.95;95530.63;10374977;28;1706;-73
2022/08/13 12:52:02;;;;;;;;;;;26.30;87.60;;;25.64;33.92;95520.66;10371388;28;1769;-71
2022/08/13 12:57:06;;;;;;;;;;;26.20;88.60;;;26.04;33.17;95522.69;10392091;28;1837;-71
2022/08/13 13:02:29;;;;;;;;;;;26.40;89.00;;;25.80;33.69;95524.81;10378044;28;1902;-71
2022/08/13 13:07:32;;;;;;;;;;;26.30;89.30;;;26.10;33.15;95534.94;10388327;28;1845;-71
2022/08/13 13:12:55;;;;;;;;;;;26.40;89.10;;;26.05;33.40;95530.56;10372979;28;1813;-71
2022/08/13 13:17:59;;;;;;;;;;;26.70;88.40;;;25.78;33.83;95529.13;10392192;28;1805;-71
2022/08/13 13:23:22;;;;;;;;;;;26.60;88.60;;;26.04;34.05;95533.72;10373500;28;1948;-71
2022/08/13 13:28:31;;;;;;;;;;;26.60;89.50;;;25.82;34.36;95538.19;10370742;28;1910;-71
2022/08/13 13:33:36;;;;;;;;;;;26.50;89.60;;;26.23;34.03;95536.25;10371387;28;1815;-71
2022/08/13 13:38:44;;;;;;;;;;;26.70;90.10;;;26.53;33.78;95516.03;10383863;28;1845;-71
2022/08/13 13:43:57;;;;;;;;;;;26.90;90.10;;;25.34;35.43;95533.31;10370723;28;1938;-72
2022/08/13 13:49:21;;;;;;;;;;;26.70;91.30;;;25.19;35.55;95528.00;10378874;28;1837;-71
2022/08/13 13:54:24;;;;;;;;;;;26.20;94.10;;;24.85;36.78;95529.88;10397543;28;2038;-72
2022/08/13 13:59:28;;;;;;;;;;;25.80;95.00;;;25.21;36.66;95525.69;10380611;28;1879;-72
2022/08/13 14:04:47;;;;;;;;;;;25.70;99.90;;;25.26;35.69;95517.91;10381535;28;1887;-70
2022/08/13 14:10:11;;;;;;;;;;;26.10;96.70;;;24.83;36.21;95513.75;10394681;28;1858;-71
2022/08/13 14:15:13;;;;;;;;;;;26.10;99.90;;;25.36;35.02;95508.16;10398139;28;1831;-70
2022/08/13 14:20:17;;;;;;;;;;;25.90;96.40;;;25.01;33.63;95511.25;10386519;28;1859;-71
2022/08/13 14:25:41;;;;;;;;;;;26.00;94.20;;;25.51;32.51;95506.38;10400300;28;1962;-72
2022/08/13 14:30:45;;;;;;;;;;;26.10;92.80;;;25.72;30.83;95501.09;10382191;28;1749;-72
2022/08/13 14:35:49;;;;;;;;;;;26.30;97.50;;;25.55;31.29;95496.19;10378617;28;1901;-71
2022/08/13 14:40:53;;;;;;;;;;;26.50;89.80;;;25.90;31.32;95487.56;10396721;28;1911;-71
2022/08/13 14:46:00;;;;;;;;;;;26.50;88.80;;;26.31;30.88;95485.53;10383291;28;1977;-71
2022/08/13 14:51:04;;;;;;;;;;;26.90;88.50;;;26.24;28.19;95470.91;10394052;28;1751;-72
2022/08/13 14:56:23;;;;;;;;;;;27.00;85.20;;;26.36;29.05;95474.16;10396522;28;1856;-72
2022/08/13 15:01:33;;;;;;;;;;;27.00;85.70;;;26.03;30.13;95471.53;10385305;28;1948;-72
2022/08/13 15:06:44;;;;;;;;;;;26.90;86.50;;;26.16;30.05;95464.56;10402507;28;1912;-72
2022/08/13 15:11:48;;;;;;;;;;;27.00;86.60;;;26.17;27.15;95463.38;10393077;28;1876;-71
2022/08/13 15:17:03;;;;;;;;;;;26.90;82.70;;;25.98;28.05;95464.41;10392614;28;2145;-71
2022/08/13 15:22:06;;;;;;;;;;;26.80;83.50;;;26.06;28.88;95463.28;10398610;28;1887;-71
2022/08/13 15:27:13;;;;;;;;;;;26.70;84.90;;;25.93;29.49;95458.44;10391324;28;1921;-73
2022/08/13 15:32:22;;;;;;;;;;;26.80;85.10;;;26.36;28.58;95457.63;10378096;28;1768;-70
2022/08/13 15:37:26;;;;;;;;;;;26.90;85.10;;;26.07;30.38;95445.59;10383710;28;1847;-70
2022/08/13 15:42:49;;;;;;;;;;;27.00;86.10;;;25.55;29.68;95449.41;10373192;28;1906;-72
2022/08/13 15:47:52;;;;;;;;;;;26.60;84.50;;;25.58;28.84;95435.69;10392393;28;1769;-71
2022/08/13 15:52:58;;;;;;;;;;;26.40;84.30;;;25.48;30.00;95433.63;10376479;28;1933;-71
2022/08/13 15:58:20;;;;;;;;;;;26.30;84.90;;;25.69;28.68;95441.28;10371308;28;1877;-72
2022/08/13 16:03:30;;;;;;;;;;;26.40;83.90;;;25.79;26.90;95429.63;10379941;28;1981;-71
2022/08/13 16:08:40;;;;;;;;;;;26.40;81.80;;;26.01;27.34;95424.28;10396145;28;1884;-71
2022/08/13 16:13:55;;;;;;;;;;;26.50;82.00;;;25.83;28.17;95424.94;10375253;28;1904;-71
2022/08/13 16:18:58;;;;;;;;;;;26.70;82.30;;;25.98;29.22;95423.09;10375605;28;1829;-70
2022/08/13 16:24:08;;;;;;;;;;;26.60;83.80;;;25.97;29.61;95423.50;10381158;28;1957;-70
2022/08/13 16:29:12;;;;;;;;;;;26.60;84.70;;;25.47;30.14;95431.25;10378531;28;1826;-71
2022/08/13 16:34:18;;;;;;;;;;;26.40;84.70;;;25.46;29.91;95424.97;10379903;28;1853;-71
2022/08/13 16:39:22;;;;;;;;;;;26.20;84.80;;;25.20;30.24;95411.31;10392752;28;1792;-70
2022/08/13 16:44:26;;;;;;;;;;;26.00;84.90;;;25.06;30.63;95417.44;10397074;28;1914;-72
2022/08/13 16:49:39;;;;;;;;;;;25.80;85.20;;;24.64;31.20;95409.44;10385090;28;1823;-71
2022/08/13 16:54:43;;;;;;;;;;;25.60;85.50;;;24.46;31.88;95403.69;10392817;28;1977;-72
2022/08/13 16:59:47;;;;;;;;;;;25.30;86.40;;;24.24;32.36;95402.59;10380306;28;1882;-71
2022/08/13 17:10:21;;;;;;;;;;;25.00;87.10;;;23.95;33.23;95404.09;10371370;28;1830;-71
2022/08/13 17:15:26;;;;;;;;;;;24.90;88.00;;;23.89;33.32;95402.81;10372127;28;1836;-73
2022/08/13 17:20:30;;;;;;;;;;;24.70;88.70;;;23.81;33.78;95406.63;10394111;28;1949;-71
2022/08/13 17:25:38;;;;;;;;;;;24.60;88.90;;;23.86;33.57;95404.38;10396252;28;1917;-72
2022/08/13 17:30:42;;;;;;;;;;;24.60;89.20;;;23.90;33.71;95404.41;10396556;28;1915;-71
2022/08/13 17:35:47;;;;;;;;;;;24.60;89.20;;;23.89;33.57;95411.84;10402925;28;1709;-71
2022/08/13 17:40:50;;;;;;;;;;;24.60;89.60;;;23.91;33.74;95405.97;10378415;28;1946;-72
2022/08/13 17:45:54;;;;;;;;;;;24.60;90.10;;;23.87;34.10;95408.69;10396915;28;1981;-72
2022/08/13 17:51:01;;;;;;;;;;;24.60;90.70;;;23.67;34.43;95402.47;10381754;28;1794;-71
2022/08/13 17:56:11;;;;;;;;;;;24.50;90.90;;;23.57;34.84;95405.78;10382689;28;1948;-72
2022/08/13 18:01:15;;;;;;;;;;;24.30;91.00;;;23.34;35.38;95410.47;10400439;28;1857;-72
2022/08/13 18:06:25;;;;;;;;;;;24.20;91.90;;;23.10;36.00;95412.41;10391750;28;1946;-70
2022/08/13 18:11:33;;;;;;;;;;;24.10;92.80;;;22.87;36.53;95411.53;10393952;28;2113;-71
2022/08/13 18:16:44;;;;;;;;;;;23.90;93.30;;;22.61;37.10;95407.47;10383845;28;1918;-71
2022/08/13 18:22:08;;;;;;;;;;;23.70;94.30;;;22.36;37.68;95411.63;10401110;28;1914;-72
2022/08/13 18:27:11;;;;;;;;;;;23.40;95.90;;;22.09;38.21;95407.88;10396608;28;1933;-71
2022/08/13 18:32:25;;;;;;;;;;;23.20;96.20;;;21.87;38.81;95406.53;10390213;28;2005;-72
2022/08/13 18:37:34;;;;;;;;;;;22.90;96.90;;;21.59;39.53;95407.44;10399288;28;1829;-72
2022/08/13 18:42:45;;;;;;;;;;;22.70;98.30;;;21.43;40.25;95412.09;10405016;28;2276;-72
2022/08/13 18:47:54;;;;;;;;;;;22.50;98.80;;;21.22;40.61;95408.78;10396424;28;1868;-72
2022/08/13 18:52:58;;;;;;;;;;;22.40;99.90;;;20.98;41.63;95421.44;10389986;28;1884;-72
2022/08/13 18:58:23;;;;;;;;;;;22.10;99.90;;;20.91;42.29;95418.50;10388147;28;1852;-71
2022/08/13 19:03:26;;;;;;;;;;;22.00;99.90;;;20.72;42.52;95415.63;10369016;28;1906;-72
2022/08/13 19:08:41;;;;;;;;;;;21.80;99.90;;;20.51;43.23;95422.06;10393207;28;1870;-71
2022/08/13 19:13:51;;;;;;;;;;;21.60;99.90;;;20.39;43.50;95432.19;10391695;28;1968;-71
2022/08/13 19:18:54;;;;;;;;;;;21.50;99.90;;;20.31;43.90;95431.19;10395196;28;1873;-71
2022/08/13 19:24:00;;;;;;;;;;;21.40;99.90;;;20.19;44.70;95433.94;10382181;28;1887;-71
2022/08/13 19:29:04;;;;;;;;;;;21.40;99.90;;;20.11;44.96;95430.19;10400506;28;1920;-71
2022/08/13 19:34:11;;;;;;;;;;;21.20;99.90;;;19.99;45.92;95441.09;10381636;28;1844;-71
2022/08/13 19:39:31;;;;;;;;;;;21.10;99.90;;;19.82;47.13;95431.22;10391711;28;1857;-71
2022/08/13 19:44:55;;;;;;;;;;;21.00;99.90;;;19.73;47.56;95427.81;10382593;28;1994;-71
2022/08/13 19:49:58;;;;;;;;;;;20.90;99.90;;;19.79;48.45;95415.53;10363876;28;2141;-69
2022/08/13 19:55:02;;;;;;;;;;;20.80;99.90;;;19.68;47.90;95420.63;10403550;28;1847;-71
2022/08/13 20:00:24;;;;;;;;;;;20.70;99.90;;;19.60;47.98;95413.38;10380709;28;1943;-70
2022/08/13 20:05:31;;;;;;;;;;;20.60;99.90;;;19.51;48.34;95417.28;10394203;28;1983;-71
2022/08/13 20:10:54;;;;;;;;;;;20.50;99.90;;;19.39;48.61;95418.88;10396925;28;1900;-72
2022/08/13 20:15:58;;;;;;;;;;;20.50;99.90;;;19.33;49.49;95411.25;10378046;28;1822;-70
2022/08/13 20:21:02;;;;;;;;;;;20.40;99.90;;;19.25;49.55;95410.22;10373522;28;1739;-70
2022/08/13 20:26:07;;;;;;;;;;;20.30;99.90;;;19.33;50.22;95411.25;10375709;28;1899;-70
2022/08/13 20:31:19;;;;;;;;;;;20.20;99.90;;;19.59;50.66;95419.16;10374967;28;1869;-71
2022/08/13 20:36:25;;;;;;;;;;;20.20;99.90;;;19.47;51.16;95413.66;10395928;28;1819;-72
2022/08/13 20:41:30;;;;;;;;;;;20.30;99.90;;;19.47;51.73;95419.09;10379374;28;1834;-71
2022/08/13 20:46:51;;;;;;;;;;;20.20;99.90;;;19.55;52.35;95404.59;10391959;28;2052;-71
2022/08/13 20:51:56;;;;;;;;;;;20.30;99.90;;;19.51;52.14;95404.47;10399186;28;1924;-71
2022/08/13 20:56:59;;;;;;;;;;;20.40;99.90;;;19.50;53.59;95407.53;10386380;28;1745;-71
2022/08/13 21:02:02;;;;;;;;;;;20.30;99.90;;;19.37;53.35;95410.25;10383614;28;1797;-71
2022/08/13 21:07:05;;;;;;;;;;;20.20;99.90;;;19.31;53.00;95414.31;10383117;28;1985;-71
2022/08/13 21:12:08;;;;;;;;;;;20.20;99.90;;;19.18;53.63;95399.06;10394234;28;1852;-70
2022/08/13 21:17:13;;;;;;;;;;;20.00;99.90;;;19.05;51.43;95397.44;10403758;28;1846;-70
2022/08/13 21:22:16;;;;;;;;;;;20.00;99.90;;;18.87;51.74;95397.63;10382480;28;1872;-70
2022/08/13 21:27:22;;;;;;;;;;;19.80;99.90;;;18.81;52.87;95407.13;10404745;28;2045;-71
2022/08/13 21:32:45;;;;;;;;;;;19.80;99.90;;;18.74;52.81;95401.44;10394747;28;1874;-70
2022/08/13 21:37:50;;;;;;;;;;;19.60;99.90;;;18.74;52.92;95398.72;10400320;28;1801;-71
2022/08/13 21:42:53;;;;;;;;;;;19.60;99.90;;;18.90;53.24;95399.69;10386560;28;1927;-71
2022/08/13 21:47:59;;;;;;;;;;;19.70;99.90;;;18.87;53.37;95397.63;10398319;28;1768;-71
2022/08/13 21:53:03;;;;;;;;;;;19.60;99.90;;;18.79;53.80;95401.22;10393515;28;1900;-71
2022/08/13 21:58:26;;;;;;;;;;;19.50;99.90;;;18.85;54.44;95394.44;10378001;28;1805;-70
2022/08/13 22:03:32;;;;;;;;;;;19.70;99.90;;;18.96;54.01;95394.81;10398205;28;1919;-71
2022/08/13 22:08:55;;;;;;;;;;;19.80;99.90;;;18.96;54.04;95397.56;10378571;28;1734;-72
2022/08/13 22:13:59;;;;;;;;;;;;;;;18.91;54.42;95397.75;10395074;28;1853;-71
2022/08/13 22:19:05;;;;;;;;;;;19.50;99.90;;;18.76;54.29;95395.66;10385200;28;1868;-71
2022/08/13 22:24:09;;;;;;;;;;;19.60;99.90;;;18.56;54.78;95397.25;10382681;28;1914;-72
2022/08/13 22:34:37;;;;;;;;;;;;;;;18.62;55.95;95401.34;10397373;28;1909;-71
2022/08/13 22:39:53;;;;;;;;;;;;;;;18.64;55.81;95399.91;10391117;28;1851;-72
2022/08/13 22:44:59;;;;;;;;;;;;;;;18.53;56.38;95387.03;10380135;28;1914;-71
2022/08/13 22:50:02;;;;;;;;;;;;;;;18.54;57.64;95392.13;10396066;28;1909;-71
2022/08/13 22:55:08;;;;;;;;;;;19.20;99.90;;;18.60;57.29;95395.44;10396022;28;1852;-70
2022/08/13 23:00:11;;;;;;;;;;;19.30;99.90;;;18.51;58.60;95398.25;10379763;28;1873;-71
2022/08/13 23:05:14;;;;;;;;;;;19.20;99.90;;;18.35;60.02;95384.44;10395709;28;1948;-72
2022/08/13 23:10:18;;;;;;;;;;;19.10;99.90;;;18.27;59.72;95385.31;10383002;28;1967;-71
2022/08/13 23:15:21;;;;;;;;;;;19.10;99.90;;;18.21;61.18;95396.72;10381079;28;1859;-70
2022/08/13 23:20:26;;;;;;;;;;;19.00;99.90;;;18.21;61.55;95378.47;10394451;28;1856;-71
2022/08/13 23:25:29;;;;;;;;;;;19.00;99.90;;;18.21;60.89;95383.91;10375146;28;1918;-71
2022/08/13 23:30:32;;;;;;;;;;;19.00;99.90;;;18.21;61.40;95383.13;10381274;28;1883;-71
2022/08/13 23:35:38;;;;;;;;;;;19.00;99.90;;;18.14;62.99;95386.38;10399223;28;2003;-71
2022/08/13 23:40:42;;;;;;;;;;;18.90;99.90;;;18.01;63.88;95382.78;10391684;28;1967;-72
2022/08/13 23:45:45;;;;;;;;;;;18.90;99.90;;;17.98;64.43;95388.06;10386932;28;2211;-71
2022/08/13 23:50:47;;;;;;;;;;;18.80;99.90;;;17.81;65.81;95378.91;10374232;28;1499;-71
2022/08/13 23:55:54;;;;;;;;;;;18.60;99.90;;;17.98;64.81;95382.63;10396710;28;1426;-71
